PWSweather.com
Personal Weather Stations
Station Observations
IROGLAN40
AalgaardNO 4330

AalgaardNO 4330

Lat: 58.773, Lon: 5.846

Elevation: 326

Station Type: Davis Vanatge Pro2

Latest ConditionsUpdated 7:30:01 AM GMT+01:01 Monday, Nov 24, 2014
Currently Today's Max Today's Min Today's Average
Temperature 40.6°F4.8°C 45.8°F7.7°C 40.6°F4.8°C 43.4°F6.3°C
Dew Point 38.5°F3.6°C 43.3°F6.3°C 38.2°F3.4°C 40.7°F4.8°C
Winds Calm Calm 9.7 mph WNW15.6 kmh WNW - 4.2 mph 6.8 kmh
Wind Gusts -- 15.0 mph24.1 kmh - -
Humidity 92% 92% 87% 90%
Pressure 29.83 in1010.2 mb 29.83 in1010.2 mb 29.73 in1006.8 mb -
Precipitation - 0.22 in5.6 mm - -
Hour Temp Dew Point Humidity Winds Wind Gusts Pressure Precip Precip Rate Daily Precip Total
07:30 AM 40.6°F4.8°C 38.5°F3.6°C 92% Calm Calm -- 29.83 in1010.2 mb 0.00 in0.0 mm 0.00 in/hr0.0 mm/hr 0.22 in5.6 mm
07:20 AM 40.6°F4.8°C 38.2°F3.4°C 91% Calm Calm -- 29.82 in1009.8 mb 0.00 in0.0 mm 0.00 in/hr0.0 mm/hr 0.22 in5.6 mm
07:10 AM 40.9°F4.9°C 38.5°F3.6°C 91% Calm Calm -- 29.82 in1009.8 mb 0.00 in0.0 mm 0.00 in/hr0.0 mm/hr 0.22 in5.6 mm
07:00 AM 41.4°F5.2°C 39.0°F3.9°C 91% 0.7 mph NW1.1 kmh NW 1.0 mph1.6 kmh 29.82 in1009.8 mb 0.00 in0.0 mm 0.00 in/hr0.0 mm/hr 0.22 in5.6 mm
06:50 AM 42.0°F5.6°C 39.5°F4.2°C 91% 0.7 mph NW1.1 kmh NW 1.0 mph1.6 kmh 29.82 in1009.8 mb 0.00 in0.0 mm 0.00 in/hr0.0 mm/hr 0.22 in5.6 mm
06:40 AM 42.2°F5.7°C 39.8°F4.3°C 91% 1.6 mph NW2.6 kmh NW 2.0 mph3.2 kmh 29.82 in1009.8 mb 0.00 in0.0 mm 0.00 in/hr0.0 mm/hr 0.22 in5.6 mm
06:30 AM 42.3°F5.7°C 39.9°F4.4°C 91% 1.4 mph NW2.3 kmh NW 3.0 mph4.8 kmh 29.82 in1009.8 mb 0.01 in0.3 mm 0.06 in/hr1.5 mm/hr 0.22 in5.6 mm
06:20 AM 42.4°F5.8°C 40.0°F4.4°C 91% 3.7 mph NW6.0 kmh NW 8.0 mph12.9 kmh 29.82 in1009.8 mb 0.02 in0.5 mm 0.12 in/hr3.0 mm/hr 0.21 in5.3 mm
06:10 AM 42.3°F5.7°C 39.9°F4.4°C 91% 2.4 mph WNW3.9 kmh WNW 4.0 mph6.4 kmh 29.82 in1009.8 mb 0.03 in0.8 mm 0.18 in/hr4.6 mm/hr 0.21 in5.3 mm
06:00 AM 42.2°F5.7°C 39.8°F4.3°C 91% 1.2 mph W1.9 kmh W 2.0 mph3.2 kmh 29.81 in1009.5 mb 0.00 in0.0 mm 0.00 in/hr0.0 mm/hr 0.17 in4.3 mm
05:50 AM 42.3°F5.7°C 39.9°F4.4°C 91% 3.3 mph WNW5.3 kmh WNW 4.0 mph6.4 kmh 29.81 in1009.5 mb 0.03 in0.8 mm 0.18 in/hr4.6 mm/hr 0.17 in4.3 mm
05:40 AM 42.4°F5.8°C 40.0°F4.4°C 91% 5.6 mph WNW9.0 kmh WNW 6.0 mph9.7 kmh 29.81 in1009.5 mb 0.01 in0.3 mm 0.06 in/hr1.5 mm/hr 0.15 in3.8 mm
05:30 AM 42.9°F6.1°C 40.5°F4.7°C 91% 4.9 mph WNW7.9 kmh WNW 10.0 mph16.1 kmh 29.81 in1009.5 mb 0.00 in0.0 mm 0.00 in/hr0.0 mm/hr 0.14 in3.6 mm
05:20 AM 43.0°F6.1°C 40.6°F4.8°C 91% 1.3 mph WNW2.1 kmh WNW 3.0 mph4.8 kmh 29.81 in1009.5 mb 0.01 in0.3 mm 0.06 in/hr1.5 mm/hr 0.14 in3.6 mm
05:10 AM 43.1°F6.2°C 40.4°F4.7°C 90% 2.0 mph WNW3.2 kmh WNW 3.0 mph4.8 kmh 29.80 in1009.1 mb 0.02 in0.5 mm 0.12 in/hr3.0 mm/hr 0.13 in3.3 mm
05:00 AM 43.1°F6.2°C 40.4°F4.7°C 90% 5.2 mph NW8.4 kmh NW 10.0 mph16.1 kmh 29.80 in1009.1 mb 0.02 in0.5 mm 0.02 in/hr0.5 mm/hr 0.12 in3.0 mm
04:50 AM 43.1°F6.2°C 40.3°F4.6°C 90% 3.3 mph W5.3 kmh W 6.0 mph9.7 kmh 29.80 in1009.1 mb 0.00 in0.0 mm 0.00 in/hr0.0 mm/hr 0.09 in2.3 mm
04:40 AM 42.9°F6.1°C 40.2°F4.6°C 90% 1.8 mph WNW2.9 kmh WNW 3.0 mph4.8 kmh 29.79 in1008.8 mb 0.01 in0.3 mm 0.06 in/hr1.5 mm/hr 0.09 in2.3 mm
04:30 AM 42.3°F5.7°C 39.6°F4.2°C 90% 5.5 mph NW8.9 kmh NW 9.0 mph14.5 kmh 29.79 in1008.8 mb 0.01 in0.3 mm 0.06 in/hr1.5 mm/hr 0.09 in2.3 mm
04:20 AM 42.3°F5.7°C 39.3°F4.1°C 89% 2.0 mph NW3.2 kmh NW 3.0 mph4.8 kmh 29.79 in1008.8 mb 0.02 in0.5 mm 0.12 in/hr3.0 mm/hr 0.08 in2.0 mm
04:10 AM 43.7°F6.5°C 40.7°F4.8°C 89% 6.2 mph WNW10.0 kmh WNW 10.0 mph16.1 kmh 29.79 in1008.8 mb 0.04 in1.0 mm 0.24 in/hr6.1 mm/hr 0.06 in1.5 mm
04:00 AM 44.1°F6.7°C 41.3°F5.2°C 90% 5.6 mph WNW9.0 kmh WNW 7.0 mph11.3 kmh 29.79 in1008.8 mb 0.00 in0.0 mm 0.00 in/hr0.0 mm/hr 0.02 in0.5 mm
03:50 AM 43.8°F6.6°C 41.1°F5.1°C 90% 6.0 mph WNW9.7 kmh WNW 7.0 mph11.3 kmh 29.79 in1008.8 mb 0.00 in0.0 mm 0.00 in/hr0.0 mm/hr 0.02 in0.5 mm
03:40 AM 43.4°F6.3°C 40.7°F4.8°C 90% 4.8 mph WNW7.7 kmh WNW 5.0 mph8.0 kmh 29.79 in1008.8 mb 0.00 in0.0 mm 0.00 in/hr0.0 mm/hr 0.02 in0.5 mm
03:30 AM 43.1°F6.2°C 40.1°F4.5°C 89% 0.8 mph WNW1.3 kmh WNW 3.0 mph4.8 kmh 29.79 in1008.8 mb 0.00 in0.0 mm 0.00 in/hr0.0 mm/hr 0.02 in0.5 mm
03:20 AM 43.0°F6.1°C 40.0°F4.4°C 89% 2.2 mph WNW3.5 kmh WNW 5.0 mph8.0 kmh 29.78 in1008.5 mb 0.00 in0.0 mm 0.00 in/hr0.0 mm/hr 0.02 in0.5 mm
03:10 AM 43.0°F6.1°C 40.0°F4.4°C 89% 2.5 mph NW4.0 kmh NW 4.0 mph6.4 kmh 29.78 in1008.5 mb 0.00 in0.0 mm 0.00 in/hr0.0 mm/hr 0.02 in0.5 mm
03:00 AM 42.9°F6.1°C 39.6°F4.2°C 88% 3.6 mph NW5.8 kmh NW 6.0 mph9.7 kmh 29.77 in1008.1 mb 0.00 in0.0 mm 0.00 in/hr0.0 mm/hr 0.02 in0.5 mm
02:50 AM 43.0°F6.1°C 39.7°F4.3°C 88% 5.7 mph WNW9.2 kmh WNW 8.0 mph12.9 kmh 29.77 in1008.1 mb 0.00 in0.0 mm 0.00 in/hr0.0 mm/hr 0.02 in0.5 mm
02:40 AM 43.5°F6.4°C 39.9°F4.4°C 87% 7.2 mph NW11.6 kmh NW 11.0 mph17.7 kmh 29.77 in1008.1 mb 0.01 in0.3 mm 0.06 in/hr1.5 mm/hr 0.02 in0.5 mm
02:30 AM 44.3°F6.8°C 40.7°F4.8°C 87% 9.5 mph NW15.3 kmh NW 14.0 mph22.5 kmh 29.77 in1008.1 mb 0.00 in0.0 mm 0.00 in/hr0.0 mm/hr 0.02 in0.5 mm
02:20 AM 44.7°F7.1°C 41.4°F5.2°C 88% 6.6 mph NW10.6 kmh NW 10.0 mph16.1 kmh 29.76 in1007.8 mb 0.00 in0.0 mm 0.00 in/hr0.0 mm/hr 0.02 in0.5 mm
02:10 AM 44.7°F7.1°C 41.6°F5.3°C 89% 9.7 mph WNW15.6 kmh WNW 14.0 mph22.5 kmh 29.76 in1007.8 mb 0.00 in0.0 mm 0.00 in/hr0.0 mm/hr 0.02 in0.5 mm
02:00 AM 44.7°F7.1°C 41.9°F5.5°C 90% 7.7 mph NW12.4 kmh NW 11.0 mph17.7 kmh 29.76 in1007.8 mb 0.00 in0.0 mm 0.00 in/hr0.0 mm/hr 0.02 in0.5 mm
01:50 AM 44.6°F7.0°C 41.8°F5.4°C 90% 7.9 mph NW12.7 kmh NW 11.0 mph17.7 kmh 29.76 in1007.8 mb 0.00 in0.0 mm 0.00 in/hr0.0 mm/hr 0.02 in0.5 mm
01:40 AM 44.4°F6.9°C 41.7°F5.4°C 90% 8.7 mph NW14.0 kmh NW 15.0 mph24.1 kmh 29.75 in1007.5 mb 0.00 in0.0 mm 0.00 in/hr0.0 mm/hr 0.02 in0.5 mm
01:30 AM 44.3°F6.8°C 41.9°F5.5°C 91% 8.5 mph WSW13.7 kmh WSW 10.0 mph16.1 kmh 29.75 in1007.5 mb 0.00 in0.0 mm 0.00 in/hr0.0 mm/hr 0.02 in0.5 mm
01:20 AM 44.3°F6.8°C 41.8°F5.4°C 91% 5.2 mph NW8.4 kmh NW 7.0 mph11.3 kmh 29.76 in1007.8 mb 0.00 in0.0 mm 0.00 in/hr0.0 mm/hr 0.02 in0.5 mm
01:10 AM 44.2°F6.8°C 42.0°F5.6°C 92% 5.2 mph WNW8.4 kmh WNW 9.0 mph14.5 kmh 29.75 in1007.5 mb 0.00 in0.0 mm 0.00 in/hr0.0 mm/hr 0.02 in0.5 mm
01:00 AM 44.3°F6.8°C 42.1°F5.6°C 92% 4.8 mph NW7.7 kmh NW 9.0 mph14.5 kmh 29.75 in1007.5 mb 0.00 in0.0 mm 0.00 in/hr0.0 mm/hr 0.02 in0.5 mm
12:50 AM 44.5°F6.9°C 42.3°F5.7°C 92% 6.1 mph NW9.8 kmh NW 9.0 mph14.5 kmh 29.75 in1007.5 mb 0.00 in0.0 mm 0.00 in/hr0.0 mm/hr 0.02 in0.5 mm
12:40 AM 45.1°F7.3°C 42.6°F5.9°C 91% 6.8 mph WNW10.9 kmh WNW 9.0 mph14.5 kmh 29.74 in1007.1 mb 0.01 in0.3 mm 0.06 in/hr1.5 mm/hr 0.02 in0.5 mm
12:30 AM 45.4°F7.4°C 42.9°F6.1°C 91% 3.6 mph WNW5.8 kmh WNW 5.0 mph8.0 kmh 29.74 in1007.1 mb 0.00 in0.0 mm 0.00 in/hr0.0 mm/hr 0.01 in0.3 mm
12:20 AM 45.5°F7.5°C 43.0°F6.1°C 91% 3.9 mph WNW6.3 kmh WNW 7.0 mph11.3 kmh 29.74 in1007.1 mb 0.01 in0.3 mm 0.06 in/hr1.5 mm/hr 0.01 in0.3 mm
12:10 AM 45.6°F7.6°C 43.1°F6.2°C 91% 3.1 mph WNW5.0 kmh WNW 4.0 mph6.4 kmh 29.73 in1006.8 mb 0.00 in0.0 mm 0.00 in/hr0.0 mm/hr 0.02 in0.5 mm
12:00 AM 45.8°F7.7°C 43.3°F6.3°C 91% 3.3 mph WNW5.3 kmh WNW 5.0 mph8.0 kmh 29.73 in1006.8 mb 0.02 in0.5 mm 0.00 in/hr0.0 mm/hr 0.02 in0.5 mm